sensor_id;sensor_type;location;lat;lon;timestamp;pressure;altitude;pressure_sealevel;temperature;humidity
48015;BME280;33780;51.034;7.120;2023-12-29T00:01:44;100283.78;;;11.25;63.67
48015;BME280;33780;51.034;7.120;2023-12-29T00:04:09;100285.47;;;11.26;63.83
48015;BME280;33780;51.034;7.120;2023-12-29T00:06:38;100285.47;;;11.26;63.36
48015;BME280;33780;51.034;7.120;2023-12-29T00:09:04;100288.13;;;11.26;63.30
48015;BME280;33780;51.034;7.120;2023-12-29T00:11:29;100279.25;;;11.25;63.45
48015;BME280;33780;51.034;7.120;2023-12-29T00:13:55;100281.94;;;11.25;63.87
48015;BME280;33780;51.034;7.120;2023-12-29T00:16:20;100278.25;;;11.26;64.01
48015;BME280;33780;51.034;7.120;2023-12-29T00:18:45;100273.75;;;11.27;63.56
48015;BME280;33780;51.034;7.120;2023-12-29T00:21:11;100282.63;;;11.27;63.72
48015;BME280;33780;51.034;7.120;2023-12-29T00:23:36;100269.22;;;11.27;63.39
48015;BME280;33780;51.034;7.120;2023-12-29T00:26:01;100270.91;;;11.28;63.70
48015;BME280;33780;51.034;7.120;2023-12-29T00:28:26;100266.41;;;11.29;63.47
48015;BME280;33780;51.034;7.120;2023-12-29T00:30:52;100271.75;;;11.29;63.43
48015;BME280;33780;51.034;7.120;2023-12-29T00:33:17;100273.59;;;11.28;63.58
48015;BME280;33780;51.034;7.120;2023-12-29T00:35:42;100285.16;;;11.29;63.97
48015;BME280;33780;51.034;7.120;2023-12-29T00:38:07;100269.09;;;11.29;63.57
48015;BME280;33780;51.034;7.120;2023-12-29T00:40:33;100273.44;;;11.30;63.82
48015;BME280;33780;51.034;7.120;2023-12-29T00:43:00;100274.28;;;11.30;63.50
48015;BME280;33780;51.034;7.120;2023-12-29T00:45:25;100266.25;;;11.30;63.63
48015;BME280;33780;51.034;7.120;2023-12-29T00:47:50;100260.91;;;11.30;63.25
48015;BME280;33780;51.034;7.120;2023-12-29T00:50:17;100259.06;;;11.31;63.51
48015;BME280;33780;51.034;7.120;2023-12-29T00:52:42;100267.09;;;11.31;63.24
48015;BME280;33780;51.034;7.120;2023-12-29T00:55:07;100260.06;;;11.30;63.20
48015;BME280;33780;51.034;7.120;2023-12-29T00:57:33;100253.84;;;11.29;63.81
48015;BME280;33780;51.034;7.120;2023-12-29T00:59:59;100255.69;;;11.29;63.30
48015;BME280;33780;51.034;7.120;2023-12-29T01:02:25;100247.66;;;11.29;63.54
48015;BME280;33780;51.034;7.120;2023-12-29T01:04:50;100247.50;;;11.30;63.58
48015;BME280;33780;51.034;7.120;2023-12-29T01:07:15;100248.34;;;11.31;63.62
48015;BME280;33780;51.034;7.120;2023-12-29T01:09:40;100247.38;;;11.32;63.69
48015;BME280;33780;51.034;7.120;2023-12-29T01:12:06;100238.50;;;11.31;63.86
48015;BME280;33780;51.034;7.120;2023-12-29T01:14:31;100233.16;;;11.31;63.72
48015;BME280;33780;51.034;7.120;2023-12-29T01:16:56;100225.81;;;11.33;63.62
48015;BME280;33780;51.034;7.120;2023-12-29T01:19:22;100224.13;;;11.32;63.50
48015;BME280;33780;51.034;7.120;2023-12-29T01:21:47;100220.59;;;11.32;63.59
48015;BME280;33780;51.034;7.120;2023-12-29T01:24:12;100216.09;;;11.32;63.58
48015;BME280;33780;51.034;7.120;2023-12-29T01:26:38;100222.28;;;11.33;63.46
48015;BME280;33780;51.034;7.120;2023-12-29T01:29:05;100213.25;;;11.34;63.79
48015;BME280;33780;51.034;7.120;2023-12-29T01:31:31;100202.53;;;11.34;63.41
48015;BME280;33780;51.034;7.120;2023-12-29T01:33:56;100207.91;;;11.34;63.54
48015;BME280;33780;51.034;7.120;2023-12-29T01:36:22;100207.06;;;11.33;63.76
48015;BME280;33780;51.034;7.120;2023-12-29T01:38:47;100195.50;;;11.33;63.32
48015;BME280;33780;51.034;7.120;2023-12-29T01:41:13;100197.19;;;11.34;63.16
48015;BME280;33780;51.034;7.120;2023-12-29T01:46:28;100205.38;;;11.32;63.29
48015;BME280;33780;51.034;7.120;2023-12-29T01:48:54;100210.56;;;11.34;63.70
48015;BME280;33780;51.034;7.120;2023-12-29T01:51:25;100199.00;;;11.33;63.73
48015;BME280;33780;51.034;7.120;2023-12-29T01:53:52;100206.22;;;11.33;63.46
48015;BME280;33780;51.034;7.120;2023-12-29T01:56:19;100207.91;;;11.34;64.00
48015;BME280;33780;51.034;7.120;2023-12-29T01:58:45;100209.72;;;11.33;63.54
48015;BME280;33780;51.034;7.120;2023-12-29T02:01:14;100215.94;;;11.34;63.68
48015;BME280;33780;51.034;7.120;2023-12-29T02:03:40;100214.09;;;11.34;63.56
48015;BME280;33780;51.034;7.120;2023-12-29T02:06:06;100214.09;;;11.34;63.77
48015;BME280;33780;51.034;7.120;2023-12-29T02:08:32;100202.53;;;11.34;63.67
48015;BME280;33780;51.034;7.120;2023-12-29T02:10:57;100206.06;;;11.34;64.09
48015;BME280;33780;51.034;7.120;2023-12-29T02:13:23;100197.03;;;11.35;64.01
48015;BME280;33780;51.034;7.120;2023-12-29T02:15:50;100192.66;;;11.34;64.00
48015;BME280;33780;51.034;7.120;2023-12-29T02:18:18;100189.00;;;11.35;63.67
48015;BME280;33780;51.034;7.120;2023-12-29T02:20:44;100184.63;;;11.34;63.76
48015;BME280;33780;51.034;7.120;2023-12-29T02:23:09;100175.59;;;11.35;63.89
48015;BME280;33780;51.034;7.120;2023-12-29T02:25:35;100169.25;;;11.36;63.46
48015;BME280;33780;51.034;7.120;2023-12-29T02:33:48;100164.03;;;11.35;64.02
48015;BME280;33780;51.034;7.120;2023-12-29T02:36:16;100170.22;;;11.35;64.06
48015;BME280;33780;51.034;7.120;2023-12-29T02:38:42;100155.00;;;11.36;64.00
48015;BME280;33780;51.034;7.120;2023-12-29T02:41:07;100152.31;;;11.36;63.93
48015;BME280;33780;51.034;7.120;2023-12-29T02:43:32;100147.81;;;11.36;65.07
48015;BME280;33780;51.034;7.120;2023-12-29T02:45:58;100153.16;;;11.36;64.67
48015;BME280;33780;51.034;7.120;2023-12-29T02:48:23;100157.69;;;11.36;65.39
48015;BME280;33780;51.034;7.120;2023-12-29T02:50:49;100153.16;;;11.36;65.10
48015;BME280;33780;51.034;7.120;2023-12-29T02:53:14;100152.19;;;11.37;65.21
48015;BME280;33780;51.034;7.120;2023-12-29T02:55:39;100152.19;;;11.37;65.14
48015;BME280;33780;51.034;7.120;2023-12-29T02:58:04;100152.19;;;11.37;65.56
48015;BME280;33780;51.034;7.120;2023-12-29T03:00:30;100152.31;;;11.36;65.14
48015;BME280;33780;51.034;7.120;2023-12-29T03:02:55;100155.00;;;11.36;65.10
48015;BME280;33780;51.034;7.120;2023-12-29T03:05:20;100152.19;;;11.37;65.01
48015;BME280;33780;51.034;7.120;2023-12-29T03:07:45;100153.00;;;11.38;65.29
48015;BME280;33780;51.034;7.120;2023-12-29T03:10:11;100154.69;;;11.39;65.11
48015;BME280;33780;51.034;7.120;2023-12-29T03:12:36;100149.50;;;11.37;65.32
48015;BME280;33780;51.034;7.120;2023-12-29T03:15:02;100153.69;;;11.40;65.54
48015;BME280;33780;51.034;7.120;2023-12-29T03:17:27;100164.25;;;11.41;65.61
48015;BME280;33780;51.034;7.120;2023-12-29T03:19:53;100157.06;;;11.42;64.93
48015;BME280;33780;51.034;7.120;2023-12-29T03:22:18;100148.88;;;11.43;65.17
48015;BME280;33780;51.034;7.120;2023-12-29T03:24:43;100150.56;;;11.44;64.90
48015;BME280;33780;51.034;7.120;2023-12-29T03:27:09;100156.91;;;11.43;64.94
48015;BME280;33780;51.034;7.120;2023-12-29T03:29:34;100148.88;;;11.43;65.19
48015;BME280;33780;51.034;7.120;2023-12-29T03:32:00;100147.88;;;11.44;65.08
48015;BME280;33780;51.034;7.120;2023-12-29T03:34:25;100153.25;;;11.44;64.91
48015;BME280;33780;51.034;7.120;2023-12-29T03:36:50;100153.09;;;11.46;65.30
48015;BME280;33780;51.034;7.120;2023-12-29T03:39:16;100150.41;;;11.46;65.58
48015;BME280;33780;51.034;7.120;2023-12-29T03:41:41;100142.38;;;11.46;64.93
48015;BME280;33780;51.034;7.120;2023-12-29T03:44:06;100146.72;;;11.47;65.29
48015;BME280;33780;51.034;7.120;2023-12-29T03:46:31;100127.13;;;11.46;65.26
48015;BME280;33780;51.034;7.120;2023-12-29T03:48:58;100127.97;;;11.47;65.18
48015;BME280;33780;51.034;7.120;2023-12-29T03:51:23;100132.22;;;11.49;65.06
48015;BME280;33780;51.034;7.120;2023-12-29T03:53:48;100137.69;;;11.48;65.35
48015;BME280;33780;51.034;7.120;2023-12-29T03:56:15;100150.97;;;11.49;65.16
48015;BME280;33780;51.034;7.120;2023-12-29T03:58:45;100138.25;;;11.52;65.06
48015;BME280;33780;51.034;7.120;2023-12-29T04:01:14;100148.81;;;11.53;65.39
48015;BME280;33780;51.034;7.120;2023-12-29T04:03:40;100138.94;;;11.54;65.24
48015;BME280;33780;51.034;7.120;2023-12-29T04:06:06;100136.28;;;11.54;65.00
48015;BME280;33780;51.034;7.120;2023-12-29T04:08:35;100149.50;;;11.55;65.37
48015;BME280;33780;51.034;7.120;2023-12-29T04:11:01;100131.59;;;11.56;65.41
48015;BME280;33780;51.034;7.120;2023-12-29T04:13:27;100131.59;;;11.56;65.03
48015;BME280;33780;51.034;7.120;2023-12-29T04:15:52;100121.56;;;11.58;65.43
48015;BME280;33780;51.034;7.120;2023-12-29T04:18:21;100130.44;;;11.58;65.22
48015;BME280;33780;51.034;7.120;2023-12-29T04:20:47;100124.09;;;11.59;65.10
48015;BME280;33780;51.034;7.120;2023-12-29T04:23:12;100121.41;;;11.59;65.07
48015;BME280;33780;51.034;7.120;2023-12-29T04:25:38;100112.53;;;11.59;65.13
48015;BME280;33780;51.034;7.120;2023-12-29T04:28:04;100107.84;;;11.61;65.33
48015;BME280;33780;51.034;7.120;2023-12-29T04:30:29;100113.38;;;11.59;65.27
48015;BME280;33780;51.034;7.120;2023-12-29T04:32:54;100114.22;;;11.60;65.53
48015;BME280;33780;51.034;7.120;2023-12-29T04:35:20;100113.22;;;11.61;65.07
48015;BME280;33780;51.034;7.120;2023-12-29T04:37:46;100111.38;;;11.61;65.31
48015;BME280;33780;51.034;7.120;2023-12-29T04:40:11;100128.97;;;11.64;64.97
48015;BME280;33780;51.034;7.120;2023-12-29T04:42:37;100132.50;;;11.64;65.22
48015;BME280;33780;51.034;7.120;2023-12-29T04:45:03;100129.81;;;11.64;65.02
48015;BME280;33780;51.034;7.120;2023-12-29T04:47:29;100138.69;;;11.65;64.85
48015;BME280;33780;51.034;7.120;2023-12-29T04:49:54;100137.03;;;11.64;65.02
48015;BME280;33780;51.034;7.120;2023-12-29T04:52:19;100146.75;;;11.65;64.89
48015;BME280;33780;51.034;7.120;2023-12-29T04:54:44;100140.53;;;11.64;64.67
48015;BME280;33780;51.034;7.120;2023-12-29T04:57:10;100146.75;;;11.65;64.97
48015;BME280;33780;51.034;7.120;2023-12-29T04:59:35;100155.63;;;11.65;65.08
48015;BME280;33780;51.034;7.120;2023-12-29T05:02:00;100150.13;;;11.67;64.90
48015;BME280;33780;51.034;7.120;2023-12-29T05:04:25;100145.75;;;11.66;64.95
48015;BME280;33780;51.034;7.120;2023-12-29T05:06:51;100154.63;;;11.66;65.17
48015;BME280;33780;51.034;7.120;2023-12-29T05:09:16;100158.03;;;11.68;65.20
48015;BME280;33780;51.034;7.120;2023-12-29T05:11:41;100156.34;;;11.67;65.29
48015;BME280;33780;51.034;7.120;2023-12-29T05:14:07;100167.91;;;11.68;65.28
48015;BME280;33780;51.034;7.120;2023-12-29T05:16:32;100150.84;;;11.69;65.50
48015;BME280;33780;51.034;7.120;2023-12-29T05:18:57;100155.47;;;11.67;65.66
48015;BME280;33780;51.034;7.120;2023-12-29T05:21:22;100170.59;;;11.68;65.76
48015;BME280;33780;51.034;7.120;2023-12-29T05:23:49;100154.63;;;11.66;65.95
48015;BME280;33780;51.034;7.120;2023-12-29T05:26:15;100157.19;;;11.68;65.85
48015;BME280;33780;51.034;7.120;2023-12-29T05:28:40;100163.50;;;11.67;65.50
48015;BME280;33780;51.034;7.120;2023-12-29T05:31:05;100149.16;;;11.68;65.56
48015;BME280;33780;51.034;7.120;2023-12-29T05:33:34;100151.00;;;11.67;65.52
48015;BME280;33780;51.034;7.120;2023-12-29T05:36:10;100151.81;;;11.68;65.68
48015;BME280;33780;51.034;7.120;2023-12-29T05:38:36;100140.13;;;11.69;65.47
48015;BME280;33780;51.034;7.120;2023-12-29T05:41:03;100143.78;;;11.68;65.20
48015;BME280;33780;51.034;7.120;2023-12-29T05:43:30;100165.22;;;11.68;65.28
48015;BME280;33780;51.034;7.120;2023-12-29T05:46:00;100154.50;;;11.68;65.56
48015;BME280;33780;51.034;7.120;2023-12-29T05:48:28;100161.56;;;11.69;65.40
48015;BME280;33780;51.034;7.120;2023-12-29T05:50:54;100166.06;;;11.68;65.32
48015;BME280;33780;51.034;7.120;2023-12-29T05:53:19;100163.25;;;11.70;64.87
48015;BME280;33780;51.034;7.120;2023-12-29T05:55:45;100174.97;;;11.69;64.93
48015;BME280;33780;51.034;7.120;2023-12-29T05:58:11;100166.06;;;11.68;64.88
48015;BME280;33780;51.034;7.120;2023-12-29T06:00:37;100163.50;;;11.67;64.93
48015;BME280;33780;51.034;7.120;2023-12-29T06:03:02;100161.72;;;11.67;64.88
48015;BME280;33780;51.034;7.120;2023-12-29T06:05:29;100162.66;;;11.66;65.02
48015;BME280;33780;51.034;7.120;2023-12-29T06:07:55;100145.75;;;11.66;64.52
48015;BME280;33780;51.034;7.120;2023-12-29T06:10:20;100156.63;;;11.64;64.66
48015;BME280;33780;51.034;7.120;2023-12-29T06:12:45;100158.47;;;11.64;64.76
48015;BME280;33780;51.034;7.120;2023-12-29T06:15:12;100169.34;;;11.62;64.44
48015;BME280;33780;51.034;7.120;2023-12-29T06:17:38;100169.19;;;11.64;64.49
48015;BME280;33780;51.034;7.120;2023-12-29T06:20:06;100170.19;;;11.63;64.40
48015;BME280;33780;51.034;7.120;2023-12-29T06:22:32;100162.44;;;11.60;64.69
48015;BME280;33780;51.034;7.120;2023-12-29T06:24:57;100159.78;;;11.60;64.84
48015;BME280;33780;51.034;7.120;2023-12-29T06:27:23;100157.94;;;11.60;64.97
48015;BME280;33780;51.034;7.120;2023-12-29T06:29:48;100165.97;;;11.60;64.73
48015;BME280;33780;51.034;7.120;2023-12-29T06:32:13;100164.13;;;11.61;64.47
48015;BME280;33780;51.034;7.120;2023-12-29T06:34:40;100163.97;;;11.62;64.84
48015;BME280;33780;51.034;7.120;2023-12-29T06:37:05;100165.81;;;11.62;64.96
48015;BME280;33780;51.034;7.120;2023-12-29T06:39:31;100153.41;;;11.61;64.74
48015;BME280;33780;51.034;7.120;2023-12-29T06:41:56;100158.78;;;11.61;64.62
48015;BME280;33780;51.034;7.120;2023-12-29T06:44:21;100163.97;;;11.62;64.65
48015;BME280;33780;51.034;7.120;2023-12-29T06:46:47;100160.31;;;11.63;64.50
48015;BME280;33780;51.034;7.120;2023-12-29T06:49:12;100169.34;;;11.62;65.02
48015;BME280;33780;51.034;7.120;2023-12-29T06:51:37;100161.28;;;11.62;64.69
48015;BME280;33780;51.034;7.120;2023-12-29T06:54:05;100157.63;;;11.63;64.32
48015;BME280;33780;51.034;7.120;2023-12-29T06:56:31;100155.78;;;11.64;64.48
48015;BME280;33780;51.034;7.120;2023-12-29T06:58:56;100157.47;;;11.65;64.31
48015;BME280;33780;51.034;7.120;2023-12-29T07:01:21;100154.78;;;11.65;64.35
48015;BME280;33780;51.034;7.120;2023-12-29T07:03:47;100147.75;;;11.64;64.37
48015;BME280;33780;51.034;7.120;2023-12-29T07:06:12;100142.22;;;11.65;64.16
48015;BME280;33780;51.034;7.120;2023-12-29T07:08:37;100134.19;;;11.65;64.27
48015;BME280;33780;51.034;7.120;2023-12-29T07:11:03;100135.03;;;11.66;64.17
48015;BME280;33780;51.034;7.120;2023-12-29T07:13:28;100135.88;;;11.66;63.95
48015;BME280;33780;51.034;7.120;2023-12-29T07:15:54;100125.16;;;11.66;64.09
48015;BME280;33780;51.034;7.120;2023-12-29T07:18:19;100131.34;;;11.67;63.94
48015;BME280;33780;51.034;7.120;2023-12-29T07:20:45;100121.50;;;11.67;64.24
48015;BME280;33780;51.034;7.120;2023-12-29T07:23:10;100128.53;;;11.68;64.08
48015;BME280;33780;51.034;7.120;2023-12-29T07:25:35;100128.53;;;11.68;63.93
48015;BME280;33780;51.034;7.120;2023-12-29T07:28:01;100123.03;;;11.70;63.91
48015;BME280;33780;51.034;7.120;2023-12-29T07:30:26;100116.81;;;11.69;64.19
48015;BME280;33780;51.034;7.120;2023-12-29T07:32:51;100121.34;;;11.69;64.12
48015;BME280;33780;51.034;7.120;2023-12-29T07:35:17;100119.50;;;11.69;64.05
48015;BME280;33780;51.034;7.120;2023-12-29T07:37:44;100117.66;;;11.70;63.94
48015;BME280;33780;51.034;7.120;2023-12-29T07:40:10;100110.47;;;11.70;64.20
48015;BME280;33780;51.034;7.120;2023-12-29T07:42:36;100113.84;;;11.72;64.07
48015;BME280;33780;51.034;7.120;2023-12-29T07:45:01;100117.50;;;11.71;63.59
48015;BME280;33780;51.034;7.120;2023-12-29T07:47:26;100117.50;;;11.71;64.09
48015;BME280;33780;51.034;7.120;2023-12-29T07:49:52;100107.63;;;11.72;64.04
48015;BME280;33780;51.034;7.120;2023-12-29T07:52:17;100112.16;;;11.71;63.98
48015;BME280;33780;51.034;7.120;2023-12-29T07:54:42;100102.44;;;11.70;64.29
48015;BME280;33780;51.034;7.120;2023-12-29T07:57:11;100102.44;;;11.70;64.29
48015;BME280;33780;51.034;7.120;2023-12-29T07:59:36;100101.44;;;11.71;64.39
48015;BME280;33780;51.034;7.120;2023-12-29T08:02:01;100109.47;;;11.71;64.80
48015;BME280;33780;51.034;7.120;2023-12-29T08:04:26;100104.25;;;11.70;65.57
48015;BME280;33780;51.034;7.120;2023-12-29T08:06:52;100108.78;;;11.69;66.52
48015;BME280;33780;51.034;7.120;2023-12-29T08:09:17;100106.94;;;11.70;67.63
48015;BME280;33780;51.034;7.120;2023-12-29T08:11:42;100131.34;;;11.67;67.71
48015;BME280;33780;51.034;7.120;2023-12-29T08:14:08;100116.41;;;11.64;68.55
48015;BME280;33780;51.034;7.120;2023-12-29T08:16:40;100123.94;;;11.61;69.92
48015;BME280;33780;51.034;7.120;2023-12-29T08:19:06;100131.44;;;11.57;70.30
48015;BME280;33780;51.034;7.120;2023-12-29T08:21:32;100148.69;;;11.55;70.74
48015;BME280;33780;51.034;7.120;2023-12-29T08:23:57;100143.78;;;11.50;71.08
48015;BME280;33780;51.034;7.120;2023-12-29T08:26:22;100150.13;;;11.49;71.39
48015;BME280;33780;51.034;7.120;2023-12-29T08:28:47;100156.59;;;11.46;72.01
48015;BME280;33780;51.034;7.120;2023-12-29T08:31:13;100157.44;;;11.47;72.55
48015;BME280;33780;51.034;7.120;2023-12-29T08:33:38;100154.25;;;11.43;72.45
48015;BME280;33780;51.034;7.120;2023-12-29T08:36:03;100145.50;;;11.41;72.34
48015;BME280;33780;51.034;7.120;2023-12-29T08:38:30;100156.38;;;11.40;73.29
48015;BME280;33780;51.034;7.120;2023-12-29T08:40:56;100158.38;;;11.38;73.32
48015;BME280;33780;51.034;7.120;2023-12-29T08:43:21;100162.03;;;11.37;73.37
48015;BME280;33780;51.034;7.120;2023-12-29T08:45:50;100172.06;;;11.35;73.25
48015;BME280;33780;51.034;7.120;2023-12-29T08:48:15;100160.50;;;11.34;73.40
48015;BME280;33780;51.034;7.120;2023-12-29T08:50:41;100156.84;;;11.35;74.17
48015;BME280;33780;51.034;7.120;2023-12-29T08:53:08;100156.16;;;11.33;73.99
48015;BME280;33780;51.034;7.120;2023-12-29T08:55:33;100158.84;;;11.33;74.20
48015;BME280;33780;51.034;7.120;2023-12-29T08:57:59;100153.47;;;11.33;74.53
48015;BME280;33780;51.034;7.120;2023-12-29T09:00:24;100150.94;;;11.32;74.66
48015;BME280;33780;51.034;7.120;2023-12-29T09:02:49;100165.19;;;11.32;74.61
48015;BME280;33780;51.034;7.120;2023-12-29T09:05:14;100151.06;;;11.30;74.74
48015;BME280;33780;51.034;7.120;2023-12-29T09:07:40;100146.72;;;11.29;74.86
48015;BME280;33780;51.034;7.120;2023-12-29T09:10:06;100152.22;;;11.28;75.48
48015;BME280;33780;51.034;7.120;2023-12-29T09:12:34;100151.53;;;11.26;75.71
48015;BME280;33780;51.034;7.120;2023-12-29T09:14:59;100154.34;;;11.24;75.69
48015;BME280;33780;51.034;7.120;2023-12-29T09:17:24;100143.78;;;11.23;75.55
48015;BME280;33780;51.034;7.120;2023-12-29T09:19:49;100147.47;;;11.22;75.86
48015;BME280;33780;51.034;7.120;2023-12-29T09:22:15;100153.66;;;11.22;76.10
48015;BME280;33780;51.034;7.120;2023-12-29T09:24:41;100165.38;;;11.21;76.35
48015;BME280;33780;51.034;7.120;2023-12-29T09:27:06;100175.25;;;11.20;76.40
48015;BME280;33780;51.034;7.120;2023-12-29T09:29:31;100183.28;;;11.20;76.25
48015;BME280;33780;51.034;7.120;2023-12-29T09:31:57;100175.25;;;11.20;76.57
48015;BME280;33780;51.034;7.120;2023-12-29T09:34:22;100186.81;;;11.21;76.39
48015;BME280;33780;51.034;7.120;2023-12-29T09:36:47;100181.28;;;11.23;76.33
48015;BME280;33780;51.034;7.120;2023-12-29T09:39:12;100180.44;;;11.22;76.81
48015;BME280;33780;51.034;7.120;2023-12-29T09:41:43;100187.66;;;11.22;76.81
48015;BME280;33780;51.034;7.120;2023-12-29T09:44:14;100184.97;;;11.22;76.82
48015;BME280;33780;51.034;7.120;2023-12-29T09:46:42;100180.44;;;11.22;77.10
48015;BME280;33780;51.034;7.120;2023-12-29T09:49:08;100181.28;;;11.23;77.38
48015;BME280;33780;51.034;7.120;2023-12-29T09:51:34;100171.44;;;11.23;77.18
48015;BME280;33780;51.034;7.120;2023-12-29T09:54:01;100173.94;;;11.25;77.12
48015;BME280;33780;51.034;7.120;2023-12-29T09:56:27;100176.63;;;11.25;77.55
48015;BME280;33780;51.034;7.120;2023-12-29T09:58:54;100182.81;;;11.25;77.14
48015;BME280;33780;51.034;7.120;2023-12-29T10:01:20;100178.47;;;11.24;77.53
48015;BME280;33780;51.034;7.120;2023-12-29T10:03:47;100178.16;;;11.27;77.90
48015;BME280;33780;51.034;7.120;2023-12-29T10:06:18;100172.13;;;11.25;77.21
48015;BME280;33780;51.034;7.120;2023-12-29T10:08:45;100174.63;;;11.27;77.57
48015;BME280;33780;51.034;7.120;2023-12-29T10:11:13;100166.59;;;11.27;77.62
48015;BME280;33780;51.034;7.120;2023-12-29T10:13:42;100161.25;;;11.27;78.02
48015;BME280;33780;51.034;7.120;2023-12-29T10:16:17;100163.09;;;11.26;78.04
48015;BME280;33780;51.034;7.120;2023-12-29T10:18:55;100153.38;;;11.25;78.30
48015;BME280;33780;51.034;7.120;2023-12-29T10:21:40;100155.34;;;11.23;77.28
48015;BME280;33780;51.034;7.120;2023-12-29T10:24:12;100147.16;;;11.25;77.95
48015;BME280;33780;51.034;7.120;2023-12-29T10:26:41;100147.84;;;11.27;77.93
48015;BME280;33780;51.034;7.120;2023-12-29T10:29:09;100152.38;;;11.26;78.13
48015;BME280;33780;51.034;7.120;2023-12-29T10:31:34;100157.56;;;11.28;77.74
48015;BME280;33780;51.034;7.120;2023-12-29T10:34:29;100156.72;;;11.27;77.50
48015;BME280;33780;51.034;7.120;2023-12-29T10:36:58;100153.91;;;11.29;78.14
48015;BME280;33780;51.034;7.120;2023-12-29T10:39:25;100153.63;;;11.32;78.28
48015;BME280;33780;51.034;7.120;2023-12-29T10:42:02;100154.47;;;11.32;77.87
48015;BME280;33780;51.034;7.120;2023-12-29T10:44:29;100156.16;;;11.33;77.98
48015;BME280;33780;51.034;7.120;2023-12-29T10:46:54;100153.31;;;11.35;77.99
48015;BME280;33780;51.034;7.120;2023-12-29T10:49:19;100151.34;;;11.37;77.97
48015;BME280;33780;51.034;7.120;2023-12-29T10:51:45;100160.06;;;11.39;77.75
48015;BME280;33780;51.034;7.120;2023-12-29T10:54:19;100164.41;;;11.40;77.76
48015;BME280;33780;51.034;7.120;2023-12-29T10:56:45;100165.78;;;11.44;77.53
48015;BME280;33780;51.034;7.120;2023-12-29T10:59:12;100152.25;;;11.45;77.75
48015;BME280;33780;51.034;7.120;2023-12-29T11:01:37;100159.97;;;11.48;77.75
48015;BME280;33780;51.034;7.120;2023-12-29T11:04:06;100157.03;;;11.52;77.46
48015;BME280;33780;51.034;7.120;2023-12-29T11:06:42;100147.84;;;11.54;77.24
48015;BME280;33780;51.034;7.120;2023-12-29T11:09:10;100140.47;;;11.56;76.79
48015;BME280;33780;51.034;7.120;2023-12-29T11:11:36;100150.72;;;11.61;76.71
48015;BME280;33780;51.034;7.120;2023-12-29T11:14:02;100153.25;;;11.62;76.84
48015;BME280;33780;51.034;7.120;2023-12-29T11:16:29;100129.81;;;11.64;76.64
48015;BME280;33780;51.034;7.120;2023-12-29T11:18:56;100134.03;;;11.67;76.00
48015;BME280;33780;51.034;7.120;2023-12-29T11:21:25;100144.63;;;11.68;76.17
48015;BME280;33780;51.034;7.120;2023-12-29T11:23:51;100155.19;;;11.70;76.34
48015;BME280;33780;51.034;7.120;2023-12-29T11:26:17;100161.78;;;11.75;75.64
48015;BME280;33780;51.034;7.120;2023-12-29T11:28:45;100153.56;;;11.77;76.23
48015;BME280;33780;51.034;7.120;2023-12-29T11:31:11;100139.06;;;11.79;76.00
48015;BME280;33780;51.034;7.120;2023-12-29T11:33:41;100138.34;;;11.77;76.01
48015;BME280;33780;51.034;7.120;2023-12-29T11:36:23;100140.88;;;11.79;75.88
48015;BME280;33780;51.034;7.120;2023-12-29T11:39:06;100139.88;;;11.80;75.59
48015;BME280;33780;51.034;7.120;2023-12-29T11:41:43;100137.22;;;11.80;75.91
48015;BME280;33780;51.034;7.120;2023-12-29T11:44:12;100134.38;;;11.82;75.69
48015;BME280;33780;51.034;7.120;2023-12-29T11:46:44;100130.69;;;11.83;75.26
48015;BME280;33780;51.034;7.120;2023-12-29T11:49:09;100131.38;;;11.85;75.57
48015;BME280;33780;51.034;7.120;2023-12-29T11:51:43;100122.50;;;11.84;75.18
48015;BME280;33780;51.034;7.120;2023-12-29T11:54:08;100119.13;;;11.82;75.16
48015;BME280;33780;51.034;7.120;2023-12-29T11:56:39;100113.09;;;11.80;75.35
48015;BME280;33780;51.034;7.120;2023-12-29T11:59:20;100116.59;;;11.80;74.91
48015;BME280;33780;51.034;7.120;2023-12-29T12:01:47;100103.03;;;11.82;75.45
48015;BME280;33780;51.034;7.120;2023-12-29T12:04:48;100099.38;;;11.83;74.41
48015;BME280;33780;51.034;7.120;2023-12-29T12:07:17;100096.69;;;11.83;74.67
48015;BME280;33780;51.034;7.120;2023-12-29T12:09:42;100093.84;;;11.85;74.73
48015;BME280;33780;51.034;7.120;2023-12-29T12:12:09;100107.25;;;11.85;74.33
48015;BME280;33780;51.034;7.120;2023-12-29T12:14:48;100112.63;;;11.85;74.01
48015;BME280;33780;51.034;7.120;2023-12-29T12:17:30;100126.72;;;11.87;73.66
48015;BME280;33780;51.034;7.120;2023-12-29T12:20:01;100104.28;;;11.88;73.51
48015;BME280;33780;51.034;7.120;2023-12-29T12:22:30;100101.44;;;11.89;73.46
48015;BME280;33780;51.034;7.120;2023-12-29T12:24:57;100106.50;;;11.92;74.08
48015;BME280;33780;51.034;7.120;2023-12-29T12:27:24;100104.66;;;11.93;74.15
48015;BME280;33780;51.034;7.120;2023-12-29T12:29:55;100096.44;;;11.94;73.49
48015;BME280;33780;51.034;7.120;2023-12-29T12:32:23;100098.66;;;11.99;73.25
48015;BME280;33780;51.034;7.120;2023-12-29T12:34:48;100095.97;;;11.99;72.77
48015;BME280;33780;51.034;7.120;2023-12-29T12:37:19;100108.38;;;12.00;72.95
48015;BME280;33780;51.034;7.120;2023-12-29T12:39:45;100100.06;;;12.03;72.75
48015;BME280;33780;51.034;7.120;2023-12-29T12:42:10;100091.84;;;12.04;72.89
48015;BME280;33780;51.034;7.120;2023-12-29T12:44:39;100089.31;;;12.03;73.41
48015;BME280;33780;51.034;7.120;2023-12-29T12:47:08;100085.78;;;12.02;72.88
48015;BME280;33780;51.034;7.120;2023-12-29T12:49:34;100070.56;;;12.03;73.31
48015;BME280;33780;51.034;7.120;2023-12-29T12:51:59;100094.53;;;12.04;72.42
48015;BME280;33780;51.034;7.120;2023-12-29T12:54:24;100089.00;;;12.06;72.61
48015;BME280;33780;51.034;7.120;2023-12-29T12:56:50;100086.31;;;12.06;72.68